createdAt,value
2023-03-17T00:00:50.604Z,936.60
2023-03-17T00:01:50.512Z,936.60
2023-03-17T00:02:50.550Z,936.62
2023-03-17T00:03:50.635Z,936.56
2023-03-17T00:04:50.472Z,936.56
2023-03-17T00:05:50.479Z,936.57
2023-03-17T00:06:50.610Z,936.57
2023-03-17T00:07:50.514Z,936.55
2023-03-17T00:08:50.536Z,936.59
2023-03-17T00:09:50.481Z,936.61
2023-03-17T00:10:50.438Z,936.60
2023-03-17T00:11:50.430Z,936.54
2023-03-17T00:12:50.438Z,936.56
2023-03-17T00:13:50.414Z,936.57
2023-03-17T00:14:50.466Z,936.55
2023-03-17T00:15:50.363Z,936.53
2023-03-17T00:16:50.340Z,936.52
2023-03-17T00:17:50.385Z,936.52
2023-03-17T00:18:50.345Z,936.50
2023-03-17T00:19:50.356Z,936.54
2023-03-17T00:20:50.397Z,936.54
2023-03-17T00:21:50.291Z,936.56
2023-03-17T00:22:50.345Z,936.55
2023-03-17T00:23:50.354Z,936.56
2023-03-17T00:24:50.297Z,936.55
2023-03-17T00:25:50.310Z,936.55
2023-03-17T00:26:50.281Z,936.53
2023-03-17T00:27:50.233Z,936.55
2023-03-17T00:28:50.245Z,936.55
2023-03-17T00:29:50.225Z,936.59
2023-03-17T00:30:50.290Z,936.59
2023-03-17T00:31:50.202Z,936.57
2023-03-17T00:32:50.264Z,936.61
2023-03-17T00:33:50.223Z,936.59
2023-03-17T00:34:50.199Z,936.63
2023-03-17T00:35:50.246Z,936.61
2023-03-17T00:36:50.215Z,936.65
2023-03-17T00:37:50.183Z,936.60
2023-03-17T00:38:50.168Z,936.66
2023-03-17T00:39:50.157Z,936.66
2023-03-17T00:40:50.132Z,936.67
2023-03-17T00:41:50.177Z,936.66
2023-03-17T00:42:50.229Z,936.64
2023-03-17T00:43:50.139Z,936.65
2023-03-17T00:44:50.087Z,936.59
2023-03-17T00:45:50.103Z,936.60
2023-03-17T00:46:54.970Z,936.56
2023-03-17T00:47:50.096Z,936.60
2023-03-17T00:48:50.123Z,936.61
2023-03-17T00:49:50.076Z,936.56
2023-03-17T00:50:50.096Z,936.52
2023-03-17T00:51:50.005Z,936.53
2023-03-17T00:52:50.078Z,936.48
2023-03-17T00:53:50.015Z,936.57
2023-03-17T00:54:50.092Z,936.50
2023-03-17T00:55:50.013Z,936.49
2023-03-17T00:56:50.029Z,936.47
2023-03-17T00:57:49.935Z,936.48
2023-03-17T00:58:49.950Z,936.50
2023-03-17T00:59:50.015Z,936.46
2023-03-17T01:00:50.067Z,936.44
2023-03-17T01:01:50.158Z,936.45
2023-03-17T01:02:49.907Z,936.49
2023-03-17T01:03:49.925Z,936.39
2023-03-17T01:04:59.810Z,936.43
2023-03-17T01:05:50.848Z,936.42
2023-03-17T01:06:49.864Z,936.39
2023-03-17T01:07:49.874Z,936.35
2023-03-17T01:08:49.839Z,936.34
2023-03-17T01:09:49.852Z,936.37
2023-03-17T01:10:49.931Z,936.33
2023-03-17T01:11:49.813Z,936.35
2023-03-17T01:12:49.781Z,936.33
2023-03-17T01:13:49.759Z,936.32
2023-03-17T01:14:49.840Z,936.27
2023-03-17T01:15:49.802Z,936.25
2023-03-17T01:16:54.424Z,936.24
2023-03-17T01:17:49.729Z,936.29
2023-03-17T01:18:49.861Z,936.28
2023-03-17T01:19:49.774Z,936.30
2023-03-17T01:20:49.750Z,936.29
2023-03-17T01:21:49.696Z,936.29
2023-03-17T01:22:49.687Z,936.25
2023-03-17T01:23:49.676Z,936.27
2023-03-17T01:24:49.726Z,936.24
2023-03-17T01:25:49.648Z,936.25
2023-03-17T01:26:49.710Z,936.24
2023-03-17T01:27:49.625Z,936.21
2023-03-17T01:28:49.614Z,936.20
2023-03-17T01:29:49.681Z,936.18
2023-03-17T01:30:49.636Z,936.15
2023-03-17T01:31:49.640Z,936.14
2023-03-17T01:32:49.793Z,936.13
2023-03-17T01:33:49.614Z,936.14
2023-03-17T01:34:49.574Z,936.09
2023-03-17T01:35:49.705Z,936.11
2023-03-17T01:36:49.687Z,936.07
2023-03-17T01:37:49.545Z,936.10
2023-03-17T01:38:49.620Z,936.04
2023-03-17T01:39:49.512Z,936.13
2023-03-17T01:40:49.541Z,936.05
2023-03-17T01:41:49.496Z,936.08
2023-03-17T01:42:49.519Z,936.07
2023-03-17T01:43:49.516Z,936.05
2023-03-17T01:44:49.596Z,936.08
2023-03-17T01:45:49.539Z,936.09
2023-03-17T01:46:49.516Z,936.01
2023-03-17T01:47:49.445Z,936.03
2023-03-17T01:48:49.451Z,936.03
2023-03-17T01:49:49.415Z,936.02
2023-03-17T01:50:49.431Z,935.98
2023-03-17T01:51:49.463Z,935.97
2023-03-17T01:52:49.394Z,935.94
2023-03-17T01:53:49.364Z,935.96
2023-03-17T01:54:49.478Z,935.91
2023-03-17T01:55:49.433Z,935.88
2023-03-17T01:56:49.361Z,935.83
2023-03-17T01:57:49.352Z,935.83
2023-03-17T01:58:49.347Z,935.79
2023-03-17T01:59:49.317Z,935.78
2023-03-17T02:00:49.421Z,935.79
2023-03-17T02:01:49.345Z,935.73
2023-03-17T02:02:49.393Z,935.74
2023-03-17T02:03:49.284Z,935.71
2023-03-17T02:04:49.267Z,935.70
2023-03-17T02:05:49.278Z,935.64
2023-03-17T02:06:57.518Z,935.67
2023-03-17T02:07:50.261Z,935.59
2023-03-17T02:08:49.222Z,935.61
2023-03-17T02:09:49.204Z,935.54
2023-03-17T02:10:49.288Z,935.55
2023-03-17T02:11:49.250Z,935.52
2023-03-17T02:12:49.201Z,935.53
2023-03-17T02:13:49.238Z,935.49
2023-03-17T02:14:49.193Z,935.52
2023-03-17T02:15:49.189Z,935.46
2023-03-17T02:16:49.240Z,935.44
2023-03-17T02:17:49.208Z,935.43
2023-03-17T02:18:49.196Z,935.40
2023-03-17T02:19:49.105Z,935.41
2023-03-17T02:20:49.133Z,935.43
2023-03-17T02:21:49.158Z,935.43
2023-03-17T02:22:49.088Z,935.43
2023-03-17T02:23:49.066Z,935.41
2023-03-17T02:24:49.057Z,935.46
2023-03-17T02:25:49.069Z,935.41
2023-03-17T02:26:49.051Z,935.43
2023-03-17T02:27:49.129Z,935.43
2023-03-17T02:28:49.022Z,935.44
2023-03-17T02:29:49.026Z,935.44
2023-03-17T02:30:49.140Z,935.43
2023-03-17T02:31:49.003Z,935.44
2023-03-17T02:32:49.083Z,935.44
2023-03-17T02:33:49.039Z,935.45
2023-03-17T02:34:48.963Z,935.44
2023-03-17T02:35:49.050Z,935.47
2023-03-17T02:36:49.955Z,935.47
2023-03-17T02:37:49.012Z,935.47
2023-03-17T02:38:48.955Z,935.47
2023-03-17T02:39:48.909Z,935.46
2023-03-17T02:40:49.009Z,935.46
2023-03-17T02:41:48.881Z,935.45
2023-03-17T02:42:48.934Z,935.40
2023-03-17T02:43:48.895Z,935.43
2023-03-17T02:44:48.969Z,935.41
2023-03-17T02:45:48.929Z,935.38
2023-03-17T02:47:03.419Z,935.42
2023-03-17T02:47:48.854Z,935.36
2023-03-17T02:48:48.835Z,935.37
2023-03-17T02:49:48.891Z,935.29
2023-03-17T02:50:48.809Z,935.31
2023-03-17T02:51:48.817Z,935.24
2023-03-17T02:52:48.789Z,935.25
2023-03-17T02:53:48.828Z,935.22
2023-03-17T02:54:48.770Z,935.22
2023-03-17T02:55:48.834Z,935.24
2023-03-17T02:56:48.735Z,935.21
2023-03-17T02:57:48.767Z,935.20
2023-03-17T02:58:48.798Z,935.19
2023-03-17T02:59:48.771Z,935.19
2023-03-17T03:00:48.703Z,935.21
2023-03-17T03:01:48.847Z,935.20
2023-03-17T03:02:48.749Z,935.25
2023-03-17T03:03:48.681Z,935.22
2023-03-17T03:04:48.759Z,935.27
2023-03-17T03:05:48.699Z,935.24
2023-03-17T03:06:48.700Z,935.25
2023-03-17T03:07:48.670Z,935.19
2023-03-17T03:08:48.616Z,935.15
2023-03-17T03:09:48.710Z,935.15
2023-03-17T03:10:48.646Z,935.15
2023-03-17T03:11:48.593Z,935.17
2023-03-17T03:12:48.593Z,935.23
2023-03-17T03:13:48.566Z,935.22
2023-03-17T03:14:48.677Z,935.25
2023-03-17T03:15:48.646Z,935.24
2023-03-17T03:16:48.586Z,935.26
2023-03-17T03:17:48.557Z,935.20
2023-03-17T03:18:48.575Z,935.24
2023-03-17T03:19:48.586Z,935.19
2023-03-17T03:20:48.504Z,935.16
2023-03-17T03:21:48.517Z,935.17
2023-03-17T03:22:48.554Z,935.16
2023-03-17T03:23:48.481Z,935.18
2023-03-17T03:24:48.485Z,935.16
2023-03-17T03:25:48.590Z,935.17
2023-03-17T03:26:48.446Z,935.16
2023-03-17T03:27:48.452Z,935.14
2023-03-17T03:28:48.419Z,935.17
2023-03-17T03:29:48.478Z,935.11
2023-03-17T03:30:48.463Z,935.11
2023-03-17T03:31:48.439Z,935.19
2023-03-17T03:32:48.478Z,935.15
2023-03-17T03:33:48.416Z,935.13
2023-03-17T03:34:48.420Z,935.15
2023-03-17T03:35:48.450Z,935.16
2023-03-17T03:36:48.392Z,935.18
2023-03-17T03:37:48.368Z,935.21
2023-03-17T03:38:48.320Z,935.24
2023-03-17T03:39:48.317Z,935.24
2023-03-17T03:40:48.378Z,935.24
2023-03-17T03:41:48.305Z,935.25
2023-03-17T03:42:48.281Z,935.28
2023-03-17T03:43:48.289Z,935.26
2023-03-17T03:44:48.333Z,935.31
2023-03-17T03:45:48.246Z,935.35
2023-03-17T03:46:48.297Z,935.35
2023-03-17T03:47:48.305Z,935.32
2023-03-17T03:48:48.233Z,935.32
2023-03-17T03:49:48.219Z,935.27
2023-03-17T03:50:48.281Z,935.25
2023-03-17T03:51:48.229Z,935.23
2023-03-17T03:52:48.188Z,935.17
2023-03-17T03:53:48.321Z,935.20
2023-03-17T03:54:48.187Z,935.20
2023-03-17T03:55:48.216Z,935.17
2023-03-17T03:56:48.229Z,935.18
2023-03-17T03:57:48.228Z,935.15
2023-03-17T03:58:48.205Z,935.15
2023-03-17T03:59:48.141Z,935.09
2023-03-17T04:00:48.134Z,935.10
2023-03-17T04:01:48.134Z,935.13
2023-03-17T04:02:48.178Z,935.14
2023-03-17T04:03:48.097Z,935.17
2023-03-17T04:04:48.244Z,935.14
2023-03-17T04:05:48.079Z,935.17
2023-03-17T04:06:48.126Z,935.19
2023-03-17T04:07:48.069Z,935.20
2023-03-17T04:08:48.029Z,935.22
2023-03-17T04:09:48.006Z,935.18
2023-03-17T04:10:48.087Z,935.19
2023-03-17T04:11:48.069Z,935.17
2023-03-17T04:12:48.023Z,935.20
2023-03-17T04:13:47.981Z,935.19
2023-03-17T04:14:47.973Z,935.15
2023-03-17T04:15:48.031Z,935.20
2023-03-17T04:16:58.975Z,935.17
2023-03-17T04:17:47.949Z,935.17
2023-03-17T04:18:47.977Z,935.19
2023-03-17T04:19:55.493Z,935.19
2023-03-17T04:20:47.921Z,935.19
2023-03-17T04:21:47.881Z,935.15
2023-03-17T04:22:47.930Z,935.13
2023-03-17T04:23:47.890Z,935.18
2023-03-17T04:24:47.860Z,935.23
2023-03-17T04:25:47.852Z,935.19
2023-03-17T04:26:47.885Z,935.19
2023-03-17T04:27:47.886Z,935.20
2023-03-17T04:28:47.837Z,935.23
2023-03-17T04:29:47.860Z,935.24
2023-03-17T04:30:47.801Z,935.20
2023-03-17T04:31:47.896Z,935.20
2023-03-17T04:32:47.849Z,935.21
2023-03-17T04:33:47.782Z,935.22
2023-03-17T04:34:47.801Z,935.23
2023-03-17T04:35:47.785Z,935.19
2023-03-17T04:36:47.817Z,935.22
2023-03-17T04:37:47.800Z,935.22
2023-03-17T04:38:47.806Z,935.15
2023-03-17T04:39:47.756Z,935.19
2023-03-17T04:40:47.689Z,935.18
2023-03-17T04:41:47.723Z,935.19
2023-03-17T04:42:47.677Z,935.20
2023-03-17T04:43:47.703Z,935.15
2023-03-17T04:44:47.732Z,935.18
2023-03-17T04:45:47.777Z,935.15
2023-03-17T04:46:47.686Z,935.15
2023-03-17T04:47:47.635Z,935.17
2023-03-17T04:48:47.631Z,935.18
2023-03-17T04:49:47.630Z,935.16
2023-03-17T04:50:47.647Z,935.12
2023-03-17T04:51:47.640Z,935.11
2023-03-17T04:52:47.608Z,935.13
2023-03-17T04:53:47.675Z,935.10
2023-03-17T04:54:47.582Z,935.10
2023-03-17T04:55:47.557Z,935.09
2023-03-17T04:56:47.546Z,935.11
2023-03-17T04:57:47.589Z,935.12
2023-03-17T04:58:47.534Z,935.10
2023-03-17T04:59:47.517Z,935.10
2023-03-17T05:00:47.493Z,935.12
2023-03-17T05:01:47.510Z,935.13
2023-03-17T05:02:47.539Z,935.14
2023-03-17T05:03:47.611Z,935.11
2023-03-17T05:04:47.455Z,935.11
2023-03-17T05:05:47.513Z,935.17
2023-03-17T05:06:47.452Z,935.19
2023-03-17T05:07:47.564Z,935.19
2023-03-17T05:08:47.427Z,935.19
2023-03-17T05:09:47.451Z,935.22
2023-03-17T05:10:47.528Z,935.19
2023-03-17T05:11:47.429Z,935.19
2023-03-17T05:12:47.449Z,935.15
2023-03-17T05:13:47.371Z,935.16
2023-03-17T05:14:47.578Z,935.13
2023-03-17T05:15:47.504Z,935.14
2023-03-17T05:16:47.596Z,935.17
2023-03-17T05:17:47.436Z,935.16
2023-03-17T05:18:47.341Z,935.14
2023-03-17T05:19:47.401Z,935.18
2023-03-17T05:20:47.460Z,935.17
2023-03-17T05:21:47.301Z,935.18
2023-03-17T05:22:47.272Z,935.14
2023-03-17T05:23:47.305Z,935.17
2023-03-17T05:24:47.257Z,935.16
2023-03-17T05:25:47.255Z,935.16
2023-03-17T05:26:47.351Z,935.16
2023-03-17T05:27:47.240Z,935.19
2023-03-17T05:28:47.266Z,935.19
2023-03-17T05:29:47.228Z,935.20
2023-03-17T05:30:47.273Z,935.20
2023-03-17T05:31:47.215Z,935.16
2023-03-17T05:32:47.252Z,935.20
2023-03-17T05:33:47.168Z,935.25
2023-03-17T05:34:47.195Z,935.23
2023-03-17T05:35:47.186Z,935.27
2023-03-17T05:36:47.154Z,935.24
2023-03-17T05:37:47.142Z,935.24
2023-03-17T05:38:47.156Z,935.22
2023-03-17T05:39:47.106Z,935.22
2023-03-17T05:40:47.089Z,935.24
2023-03-17T05:41:47.113Z,935.20
2023-03-17T05:42:47.128Z,935.16
2023-03-17T05:43:47.107Z,935.18
2023-03-17T05:44:47.073Z,935.12
2023-03-17T05:45:47.076Z,935.15
2023-03-17T05:46:47.055Z,935.16
2023-03-17T05:47:47.107Z,935.14
2023-03-17T05:48:47.049Z,935.12
2023-03-17T05:49:47.040Z,935.14
2023-03-17T05:50:47.017Z,935.11
2023-03-17T05:51:47.031Z,935.15
2023-03-17T05:52:46.993Z,935.09
2023-03-17T05:53:46.968Z,935.04
2023-03-17T05:54:46.964Z,935.02
2023-03-17T05:55:46.985Z,935.01
2023-03-17T05:56:46.954Z,934.97
2023-03-17T05:57:46.938Z,934.97
2023-03-17T05:58:47.046Z,935.02
2023-03-17T05:59:46.971Z,935.03
2023-03-17T06:00:46.901Z,935.00
2023-03-17T06:01:47.020Z,935.00
2023-03-17T06:02:46.921Z,934.99
2023-03-17T06:03:46.888Z,934.97
2023-03-17T06:04:46.880Z,934.99
2023-03-17T06:05:46.955Z,935.00
2023-03-17T06:06:46.845Z,935.00
2023-03-17T06:07:54.681Z,934.99
2023-03-17T06:08:47.950Z,935.03
2023-03-17T06:09:46.821Z,934.96
2023-03-17T06:10:46.856Z,935.02
2023-03-17T06:11:46.816Z,935.01
2023-03-17T06:12:46.778Z,935.03
2023-03-17T06:13:46.820Z,935.02
2023-03-17T06:14:46.850Z,935.03
2023-03-17T06:15:46.782Z,935.04
2023-03-17T06:16:46.739Z,935.08
2023-03-17T06:17:46.774Z,935.11
2023-03-17T06:18:46.733Z,935.19
2023-03-17T06:19:48.947Z,935.17
2023-03-17T06:20:46.698Z,935.16
2023-03-17T06:21:46.717Z,935.23
2023-03-17T06:23:02.675Z,935.19
2023-03-17T06:23:47.689Z,935.22
2023-03-17T06:24:46.685Z,935.19
2023-03-17T06:25:46.643Z,935.20
2023-03-17T06:26:46.633Z,935.16
2023-03-17T06:27:46.621Z,935.20
2023-03-17T06:28:46.632Z,935.23
2023-03-17T06:29:46.618Z,935.21
2023-03-17T06:30:46.781Z,935.23
2023-03-17T06:31:46.779Z,935.25
2023-03-17T06:32:46.700Z,935.26
2023-03-17T06:33:46.600Z,935.26
2023-03-17T06:34:46.546Z,935.21
2023-03-17T06:35:46.577Z,935.22
2023-03-17T06:36:46.554Z,935.22
2023-03-17T06:37:46.546Z,935.22
2023-03-17T06:38:46.540Z,935.30
2023-03-17T06:39:46.515Z,935.28
2023-03-17T06:40:46.485Z,935.19
2023-03-17T06:41:46.503Z,935.19
2023-03-17T06:42:46.513Z,935.17
2023-03-17T06:43:46.443Z,935.19
2023-03-17T06:44:46.452Z,935.20
2023-03-17T06:45:46.476Z,935.20
2023-03-17T06:46:46.536Z,935.14
2023-03-17T06:47:46.450Z,935.17
2023-03-17T06:48:46.427Z,935.20
2023-03-17T06:49:46.414Z,935.17
2023-03-17T06:50:46.413Z,935.13
2023-03-17T06:51:46.370Z,935.17
2023-03-17T06:52:46.969Z,935.20
2023-03-17T06:53:46.376Z,935.16
2023-03-17T06:54:46.343Z,935.18
2023-03-17T06:55:46.932Z,935.18
2023-03-17T06:56:46.315Z,935.20
2023-03-17T06:57:46.381Z,935.16
2023-03-17T06:58:46.298Z,935.11
2023-03-17T06:59:46.284Z,935.10
2023-03-17T07:00:46.271Z,935.11
2023-03-17T07:01:46.447Z,935.16
2023-03-17T07:02:46.283Z,935.14
2023-03-17T07:03:46.416Z,935.16
2023-03-17T07:04:46.354Z,935.18
2023-03-17T07:05:46.226Z,935.13
2023-03-17T07:06:46.225Z,935.11
2023-03-17T07:07:46.255Z,935.11
2023-03-17T07:08:46.193Z,935.11
2023-03-17T07:09:46.173Z,935.14
2023-03-17T07:12:03.522Z,935.04
2023-03-17T07:13:03.436Z,935.05
2023-03-17T07:14:03.410Z,935.09
2023-03-17T07:15:03.380Z,935.05
2023-03-17T07:16:03.434Z,935.07
2023-03-17T07:17:03.369Z,935.09
2023-03-17T07:18:03.451Z,935.03
2023-03-17T07:19:03.388Z,935.04
2023-03-17T07:20:03.339Z,935.03
2023-03-17T07:21:03.369Z,935.02
2023-03-17T07:22:03.314Z,935.04
2023-03-17T07:23:03.303Z,935.04
2023-03-17T07:24:03.296Z,934.99
2023-03-17T07:25:03.313Z,934.93
2023-03-17T07:26:03.271Z,934.95
2023-03-17T07:27:03.275Z,934.95
2023-03-17T07:28:03.309Z,934.92
2023-03-17T07:29:03.277Z,934.97
2023-03-17T07:30:03.226Z,934.99
2023-03-17T07:31:03.279Z,934.97
2023-03-17T07:32:03.205Z,934.94
2023-03-17T07:33:03.274Z,934.99
2023-03-17T07:34:03.283Z,934.97
2023-03-17T07:35:03.205Z,934.94
2023-03-17T07:36:03.314Z,934.88
2023-03-17T07:37:03.157Z,934.91
2023-03-17T07:38:03.152Z,934.93
2023-03-17T07:39:03.300Z,934.93
2023-03-17T07:40:03.164Z,934.91
2023-03-17T07:41:03.106Z,934.87
2023-03-17T07:42:03.173Z,934.87
2023-03-17T07:43:03.086Z,934.81
2023-03-17T07:44:03.080Z,934.84
2023-03-17T07:45:03.110Z,934.84
2023-03-17T07:46:06.115Z,934.81
2023-03-17T07:47:03.119Z,934.79
2023-03-17T07:48:03.039Z,934.79
2023-03-17T07:49:03.119Z,934.79
2023-03-17T07:50:03.037Z,934.77
2023-03-17T07:51:03.008Z,934.74
2023-03-17T07:52:02.994Z,934.73
2023-03-17T07:53:02.998Z,934.74
2023-03-17T07:54:03.057Z,934.75
2023-03-17T07:55:03.064Z,934.77
2023-03-17T07:56:02.944Z,934.80
2023-03-17T07:57:03.070Z,934.73
2023-03-17T07:58:03.000Z,934.72
2023-03-17T07:59:02.976Z,934.73
2023-03-17T08:00:02.994Z,934.69
2023-03-17T08:01:03.547Z,934.64
2023-03-17T08:02:02.948Z,934.59
2023-03-17T08:03:10.451Z,934.65
2023-03-17T08:04:03.963Z,934.66
2023-03-17T08:05:02.849Z,934.64
2023-03-17T08:06:02.948Z,934.63
2023-03-17T08:07:02.819Z,934.62
2023-03-17T08:08:02.844Z,934.59
2023-03-17T08:09:02.822Z,934.57
2023-03-17T08:10:02.814Z,934.57
2023-03-17T08:11:02.796Z,934.58
2023-03-17T08:12:02.863Z,934.50
2023-03-17T08:13:02.749Z,934.52
2023-03-17T08:14:02.775Z,934.47
2023-03-17T08:15:02.784Z,934.46
2023-03-17T08:16:02.780Z,934.47
2023-03-17T08:17:02.791Z,934.57
2023-03-17T08:18:02.813Z,934.62
2023-03-17T08:19:02.717Z,934.57
2023-03-17T08:20:02.680Z,934.59
2023-03-17T08:21:02.701Z,934.60
2023-03-17T08:22:02.802Z,934.60
2023-03-17T08:23:02.704Z,934.59
2023-03-17T08:24:02.675Z,934.56
2023-03-17T08:25:02.633Z,934.47
2023-03-17T08:26:02.723Z,934.48
2023-03-17T08:27:02.661Z,934.46
2023-03-17T08:28:02.639Z,934.46
2023-03-17T08:29:02.641Z,934.44
2023-03-17T08:30:02.602Z,934.46
2023-03-17T08:31:02.636Z,934.43
2023-03-17T08:32:02.610Z,934.43
2023-03-17T08:33:02.567Z,934.42
2023-03-17T08:34:02.590Z,934.42
2023-03-17T08:35:02.536Z,934.40
2023-03-17T08:36:02.571Z,934.38
2023-03-17T08:37:02.572Z,934.37
2023-03-17T08:38:02.531Z,934.32
2023-03-17T08:39:02.522Z,934.35
2023-03-17T08:40:02.512Z,934.33
2023-03-17T08:41:02.472Z,934.32
2023-03-17T08:42:02.539Z,934.29
2023-03-17T08:43:02.451Z,934.32
2023-03-17T08:44:02.606Z,934.29
2023-03-17T08:45:02.415Z,934.36
2023-03-17T08:46:02.535Z,934.35
2023-03-17T08:47:17.056Z,934.41
2023-03-17T08:48:02.409Z,934.32
2023-03-17T08:49:02.402Z,934.38
2023-03-17T08:50:02.438Z,934.32
2023-03-17T08:51:02.375Z,934.40
2023-03-17T08:52:02.387Z,934.43
2023-03-17T08:53:02.400Z,934.38
2023-03-17T08:54:02.406Z,934.41
2023-03-17T08:55:02.337Z,934.39
2023-03-17T08:56:02.344Z,934.38
2023-03-17T08:57:02.319Z,934.36
2023-03-17T08:58:02.293Z,934.38
2023-03-17T08:59:02.287Z,934.35
2023-03-17T09:00:02.273Z,934.36
2023-03-17T09:01:02.310Z,934.38
2023-03-17T09:02:02.286Z,934.35
2023-03-17T09:03:02.466Z,934.36
2023-03-17T09:04:02.229Z,934.40
2023-03-17T09:05:02.261Z,934.37
2023-03-17T09:06:02.203Z,934.32
2023-03-17T09:07:04.198Z,934.30
2023-03-17T09:08:02.309Z,934.30
2023-03-17T09:09:02.290Z,934.29
2023-03-17T09:10:02.182Z,934.25
2023-03-17T09:11:02.151Z,934.22
2023-03-17T09:12:02.174Z,934.21
2023-03-17T09:13:02.128Z,934.21
2023-03-17T09:14:02.168Z,934.22
2023-03-17T09:15:02.104Z,934.18
2023-03-17T09:16:02.229Z,934.19
2023-03-17T09:17:04.049Z,934.09
2023-03-17T09:18:02.078Z,934.13
2023-03-17T09:19:02.104Z,934.08
2023-03-17T09:20:02.119Z,934.08
2023-03-17T09:21:02.046Z,934.03
2023-03-17T09:22:02.042Z,934.04
2023-03-17T09:23:02.135Z,934.02
2023-03-17T09:24:02.759Z,934.07
2023-03-17T09:25:02.290Z,934.09
2023-03-17T09:26:02.045Z,934.09
2023-03-17T09:27:01.986Z,934.09
2023-03-17T09:28:01.974Z,934.03
2023-03-17T09:29:03.773Z,934.08
2023-03-17T09:30:02.020Z,934.01
2023-03-17T09:31:02.000Z,934.06
2023-03-17T09:32:01.941Z,934.06
2023-03-17T09:33:01.967Z,934.02
2023-03-17T09:34:01.911Z,933.98
2023-03-17T09:35:01.901Z,933.98
2023-03-17T09:36:02.004Z,933.90
2023-03-17T09:37:01.960Z,933.93
2023-03-17T09:38:01.873Z,933.90
2023-03-17T09:39:01.867Z,933.89
2023-03-17T09:40:01.862Z,933.90
2023-03-17T09:41:01.862Z,933.90
2023-03-17T09:42:01.857Z,933.89
2023-03-17T09:43:01.849Z,933.85
2023-03-17T09:44:01.898Z,933.84
2023-03-17T09:45:01.823Z,933.86
2023-03-17T09:46:01.785Z,933.86
2023-03-17T09:47:01.815Z,933.88
2023-03-17T09:48:01.804Z,933.89
2023-03-17T09:49:01.748Z,933.86
2023-03-17T09:50:01.791Z,933.88
2023-03-17T09:51:01.766Z,933.92
2023-03-17T09:52:01.744Z,933.91
2023-03-17T09:53:03.942Z,933.95
2023-03-17T09:54:01.734Z,934.00
2023-03-17T09:55:01.890Z,933.99
2023-03-17T09:56:01.743Z,933.98
2023-03-17T09:57:01.734Z,933.99
2023-03-17T09:58:01.686Z,933.98
2023-03-17T09:59:01.688Z,933.95
2023-03-17T10:00:01.939Z,933.93
2023-03-17T10:01:01.884Z,933.90
2023-03-17T10:02:01.705Z,933.91
2023-03-17T10:03:01.745Z,933.95
2023-03-17T10:04:01.723Z,933.98
2023-03-17T10:05:01.809Z,934.00
2023-03-17T10:06:01.614Z,933.99
2023-03-17T10:07:01.686Z,934.01
2023-03-17T10:08:01.578Z,934.00
2023-03-17T10:09:01.616Z,933.97
2023-03-17T10:10:01.627Z,933.93
2023-03-17T10:11:01.591Z,933.97
2023-03-17T10:12:01.608Z,933.92
2023-03-17T10:13:01.559Z,933.97
2023-03-17T10:14:01.513Z,933.97
2023-03-17T10:15:01.514Z,933.98
2023-03-17T10:16:01.699Z,933.94
2023-03-17T10:17:01.470Z,933.97
2023-03-17T10:18:01.501Z,934.00
2023-03-17T10:19:01.457Z,933.91
2023-03-17T10:20:01.430Z,933.88
2023-03-17T10:21:01.418Z,933.92
2023-03-17T10:22:01.453Z,933.91
2023-03-17T10:23:01.411Z,933.88
2023-03-17T10:24:01.433Z,933.91
2023-03-17T10:25:03.602Z,933.93
2023-03-17T10:26:01.402Z,933.90
2023-03-17T10:27:01.386Z,933.88
2023-03-17T10:28:01.375Z,933.92
2023-03-17T10:29:01.402Z,933.89
2023-03-17T10:30:01.358Z,933.92
2023-03-17T10:31:01.331Z,933.90
2023-03-17T10:32:01.432Z,933.89
2023-03-17T10:33:02.275Z,933.91
2023-03-17T10:34:01.296Z,933.85
2023-03-17T10:35:01.328Z,933.82
2023-03-17T10:36:01.351Z,933.79
2023-03-17T10:37:01.357Z,933.73
2023-03-17T10:38:13.788Z,933.73
2023-03-17T10:39:02.253Z,933.68
2023-03-17T10:40:01.290Z,933.67
2023-03-17T10:41:01.221Z,933.69
2023-03-17T10:42:01.217Z,933.68
2023-03-17T10:43:01.236Z,933.61
2023-03-17T10:44:01.212Z,933.69
2023-03-17T10:45:01.216Z,933.67
2023-03-17T10:46:01.200Z,933.67
2023-03-17T10:47:01.281Z,933.62
2023-03-17T10:48:01.158Z,933.63
2023-03-17T10:49:01.145Z,933.64
2023-03-17T10:50:01.148Z,933.58
2023-03-17T10:51:01.173Z,933.63
2023-03-17T10:52:01.111Z,933.60
2023-03-17T10:53:01.144Z,933.56
2023-03-17T10:54:01.092Z,933.58
2023-03-17T10:55:01.080Z,933.59
2023-03-17T10:56:01.087Z,933.61
2023-03-17T10:57:01.144Z,933.59
2023-03-17T10:58:01.062Z,933.57
2023-03-17T10:59:01.175Z,933.57
2023-03-17T11:00:01.047Z,933.56
2023-03-17T11:01:01.043Z,933.59
2023-03-17T11:02:01.028Z,933.61
2023-03-17T11:03:01.034Z,933.59
2023-03-17T11:04:01.066Z,933.55
2023-03-17T11:05:00.971Z,933.54
2023-03-17T11:06:01.023Z,933.58
2023-03-17T11:07:00.989Z,933.53
2023-03-17T11:08:00.984Z,933.57
2023-03-17T11:09:01.067Z,933.62
2023-03-17T11:10:00.992Z,933.56
2023-03-17T11:11:00.917Z,933.56
2023-03-17T11:12:00.956Z,933.60
2023-03-17T11:13:00.897Z,933.55
2023-03-17T11:14:01.030Z,933.57
2023-03-17T11:15:00.914Z,933.60
2023-03-17T11:16:00.944Z,933.60
2023-03-17T11:17:00.875Z,933.59
2023-03-17T11:18:00.889Z,933.54
2023-03-17T11:19:00.855Z,933.58
2023-03-17T11:20:00.850Z,933.62
2023-03-17T11:21:00.807Z,933.60
2023-03-17T11:22:00.849Z,933.64
2023-03-17T11:23:00.839Z,933.54
2023-03-17T11:24:00.890Z,933.63
2023-03-17T11:25:00.781Z,933.62
2023-03-17T11:26:00.766Z,933.62
2023-03-17T11:27:00.803Z,933.52
2023-03-17T11:28:00.778Z,933.51
2023-03-17T11:29:00.766Z,933.52
2023-03-17T11:30:00.748Z,933.48
2023-03-17T11:31:01.658Z,933.52
2023-03-17T11:32:00.997Z,933.53
2023-03-17T11:33:00.812Z,933.48
2023-03-17T11:34:00.697Z,933.50
2023-03-17T11:35:00.663Z,933.45
2023-03-17T11:36:00.780Z,933.45
2023-03-17T11:37:00.640Z,933.40
2023-03-17T11:38:00.668Z,933.37
2023-03-17T11:39:00.622Z,933.35
2023-03-17T11:40:00.625Z,933.31
2023-03-17T11:41:00.612Z,933.30
2023-03-17T11:42:00.639Z,933.31
2023-03-17T11:43:00.586Z,933.30
2023-03-17T11:44:00.583Z,933.27
2023-03-17T11:45:00.556Z,933.28
2023-03-17T11:46:00.619Z,933.22
2023-03-17T11:47:00.556Z,933.22
2023-03-17T11:48:01.100Z,933.21
2023-03-17T11:49:00.534Z,933.19
2023-03-17T11:50:00.548Z,933.18
2023-03-17T11:51:00.497Z,933.17
2023-03-17T11:52:00.509Z,933.18
2023-03-17T11:53:00.533Z,933.19
2023-03-17T11:54:00.460Z,933.13
2023-03-17T11:55:05.246Z,933.10
2023-03-17T11:56:00.487Z,933.18
2023-03-17T11:57:00.435Z,933.21
2023-03-17T11:58:00.477Z,933.23
2023-03-17T11:59:00.484Z,933.27
2023-03-17T12:00:00.428Z,933.15
2023-03-17T12:01:00.545Z,933.16
2023-03-17T12:02:00.419Z,933.19
2023-03-17T12:03:00.403Z,933.14
2023-03-17T12:04:00.480Z,933.15
2023-03-17T12:05:00.403Z,933.08
2023-03-17T12:06:00.401Z,933.08
2023-03-17T12:07:00.389Z,933.10
2023-03-17T12:08:00.325Z,933.12
2023-03-17T12:09:00.310Z,933.09
2023-03-17T12:10:00.419Z,933.16
2023-03-17T12:11:00.294Z,933.13
2023-03-17T12:12:00.287Z,933.12
2023-03-17T12:13:08.201Z,933.10
2023-03-17T12:14:00.256Z,933.09
2023-03-17T12:15:00.286Z,933.09
2023-03-17T12:16:00.459Z,933.07
2023-03-17T12:17:05.217Z,933.05
2023-03-17T12:18:00.447Z,933.07
2023-03-17T12:19:00.230Z,933.06
2023-03-17T12:20:00.368Z,933.07
2023-03-17T12:21:00.191Z,933.11
2023-03-17T12:22:00.191Z,933.01
2023-03-17T12:23:00.207Z,932.98
2023-03-17T12:24:00.171Z,933.02
2023-03-17T12:25:00.182Z,932.94
2023-03-17T12:26:00.172Z,932.98
2023-03-17T12:27:00.136Z,932.91
2023-03-17T12:28:00.109Z,932.94
2023-03-17T12:29:00.152Z,932.92
2023-03-17T12:30:00.138Z,932.94